createdAt,value
2018-11-10T00:00:19.198Z,18.20
2018-11-10T00:02:48.567Z,18.20
2018-11-10T00:05:17.679Z,18.10
2018-11-10T00:07:46.292Z,18.20
2018-11-10T00:10:14.858Z,18.10
2018-11-10T00:12:43.400Z,18.10
2018-11-10T00:15:13.228Z,18.10
2018-11-10T00:17:41.754Z,18.10
2018-11-10T00:20:10.764Z,18.10
2018-11-10T00:22:40.493Z,18.10
2018-11-10T00:25:11.088Z,18.10
2018-11-10T00:27:40.019Z,18.10
2018-11-10T00:30:10.559Z,18.10
2018-11-10T00:32:39.085Z,18.10
2018-11-10T00:35:07.890Z,18.10
2018-11-10T00:37:36.482Z,18.10
2018-11-10T00:40:05.453Z,18.10
2018-11-10T00:42:33.985Z,18.10
2018-11-10T00:45:02.495Z,18.10
2018-11-10T00:47:31.025Z,18.10
2018-11-10T00:49:59.545Z,18.00
2018-11-10T00:52:28.069Z,18.00
2018-11-10T00:54:56.656Z,18.00
2018-11-10T00:57:25.317Z,18.00
2018-11-10T00:59:53.819Z,18.00
2018-11-10T01:02:22.373Z,18.00
2018-11-10T01:04:50.885Z,18.00
2018-11-10T01:07:19.414Z,18.00
2018-11-10T01:09:47.910Z,18.00
2018-11-10T01:12:16.486Z,18.00
2018-11-10T01:14:44.979Z,18.00
2018-11-10T01:17:13.497Z,17.90
2018-11-10T01:19:42.754Z,17.90
2018-11-10T01:22:11.291Z,17.90
2018-11-10T01:24:39.759Z,17.90
2018-11-10T01:27:08.281Z,17.90
2018-11-10T01:29:36.778Z,17.90
2018-11-10T01:32:05.646Z,17.90
2018-11-10T01:34:34.243Z,17.90
2018-11-10T01:37:02.771Z,17.90
2018-11-10T01:39:31.302Z,17.80
2018-11-10T01:41:59.843Z,17.90
2018-11-10T01:44:28.442Z,17.80
2018-11-10T01:46:57.121Z,17.80
2018-11-10T01:49:25.623Z,17.90
2018-11-10T01:51:54.525Z,17.80
2018-11-10T01:54:23.046Z,17.90
2018-11-10T01:56:51.549Z,17.80
2018-11-10T01:59:20.090Z,17.90
2018-11-10T02:01:48.612Z,17.90
2018-11-10T02:04:17.123Z,17.90
2018-11-10T02:06:45.764Z,17.80
2018-11-10T02:09:14.193Z,17.80
2018-11-10T02:11:42.906Z,17.80
2018-11-10T02:14:11.677Z,17.80
2018-11-10T02:16:40.200Z,17.80
2018-11-10T02:19:09.243Z,17.80
2018-11-10T02:21:38.921Z,17.80
2018-11-10T02:24:07.481Z,17.80
2018-11-10T02:26:36.310Z,17.80
2018-11-10T02:29:04.858Z,17.70
2018-11-10T02:31:33.429Z,17.80
2018-11-10T02:34:01.996Z,17.80
2018-11-10T02:36:30.522Z,17.80
2018-11-10T02:38:59.027Z,17.80
2018-11-10T02:41:27.557Z,17.80
2018-11-10T02:43:56.055Z,17.80
2018-11-10T02:46:24.573Z,17.80
2018-11-10T02:48:53.070Z,17.80
2018-11-10T02:51:21.593Z,17.80
2018-11-10T02:53:50.088Z,17.70
2018-11-10T02:56:18.586Z,17.70
2018-11-10T02:58:47.070Z,17.70
2018-11-10T03:01:15.587Z,17.70
2018-11-10T03:03:44.115Z,17.70
2018-11-10T03:06:12.974Z,17.70
2018-11-10T03:08:41.715Z,17.70
2018-11-10T03:11:10.254Z,17.70
2018-11-10T03:13:38.767Z,17.70
2018-11-10T03:16:07.307Z,17.70
2018-11-10T03:18:35.821Z,17.70
2018-11-10T03:21:04.402Z,17.70
2018-11-10T03:23:32.932Z,17.70
2018-11-10T03:26:01.439Z,17.70
2018-11-10T03:28:29.933Z,17.70
2018-11-10T03:30:58.459Z,17.70
2018-11-10T03:33:26.954Z,17.70
2018-11-10T03:35:56.410Z,17.70
2018-11-10T03:38:25.721Z,17.70
2018-11-10T03:40:54.261Z,17.70
2018-11-10T03:43:22.794Z,17.70
2018-11-10T03:45:51.321Z,17.70
2018-11-10T03:48:19.819Z,17.70
2018-11-10T03:50:48.332Z,17.70
2018-11-10T03:53:16.857Z,17.60
2018-11-10T03:55:45.374Z,17.60
2018-11-10T03:58:15.088Z,17.60
2018-11-10T04:00:43.610Z,17.70
2018-11-10T04:03:12.149Z,17.70
2018-11-10T04:05:40.678Z,17.60
2018-11-10T04:08:09.209Z,17.60
2018-11-10T04:10:37.693Z,17.60
2018-11-10T04:13:06.261Z,17.60
2018-11-10T04:15:35.010Z,17.60
2018-11-10T04:18:03.478Z,17.60
2018-11-10T04:20:32.039Z,17.60
2018-11-10T04:23:00.521Z,17.60
2018-11-10T04:25:29.055Z,17.60
2018-11-10T04:27:57.536Z,17.60
2018-11-10T04:30:26.035Z,17.60
2018-11-10T04:32:54.543Z,17.60
2018-11-10T04:35:23.225Z,17.60
2018-11-10T04:37:51.756Z,17.60
2018-11-10T04:40:20.249Z,17.60
2018-11-10T04:42:48.782Z,17.60
2018-11-10T04:45:17.254Z,17.60
2018-11-10T04:47:45.747Z,17.60
2018-11-10T04:50:14.286Z,17.60
2018-11-10T04:52:42.843Z,17.50
2018-11-10T04:55:12.387Z,17.60
2018-11-10T04:57:41.348Z,17.60
2018-11-10T05:00:12.626Z,17.60
2018-11-10T05:02:41.354Z,17.60
2018-11-10T05:05:09.874Z,17.60
2018-11-10T05:07:38.542Z,17.50
2018-11-10T05:10:08.045Z,17.60
2018-11-10T05:12:36.590Z,17.60
2018-11-10T05:15:06.500Z,17.60
2018-11-10T05:17:35.021Z,17.60
2018-11-10T05:20:03.638Z,17.60
2018-11-10T05:22:32.165Z,17.60
2018-11-10T05:25:00.699Z,17.60
2018-11-10T05:27:29.221Z,17.60
2018-11-10T05:29:58.108Z,17.60
2018-11-10T05:32:26.621Z,17.60
2018-11-10T05:34:55.134Z,17.50
2018-11-10T05:37:23.619Z,17.50
2018-11-10T05:39:52.094Z,17.60
2018-11-10T05:42:20.625Z,17.60
2018-11-10T05:44:49.093Z,17.60
2018-11-10T05:47:17.678Z,17.50
2018-11-10T05:49:46.245Z,17.60
2018-11-10T05:52:14.775Z,17.50
2018-11-10T05:54:43.338Z,17.60
2018-11-10T05:57:11.871Z,17.60
2018-11-10T05:59:40.361Z,17.50
2018-11-10T06:02:15.382Z,17.60
2018-11-10T06:04:43.922Z,17.50
2018-11-10T06:07:12.405Z,17.50
2018-11-10T06:09:40.940Z,17.60
2018-11-10T06:12:09.453Z,17.50
2018-11-10T06:14:37.994Z,17.50
2018-11-10T06:17:06.858Z,17.50
2018-11-10T06:19:35.352Z,17.50
2018-11-10T06:22:03.837Z,17.50
2018-11-10T06:24:32.310Z,17.60
2018-11-10T06:27:00.837Z,17.70
2018-11-10T06:29:29.322Z,17.70
2018-11-10T06:31:57.802Z,17.80
2018-11-10T06:34:26.293Z,17.90
2018-11-10T06:36:54.783Z,18.00
2018-11-10T06:39:23.232Z,18.10
2018-11-10T06:45:53.698Z,18.20
2018-11-10T06:48:22.285Z,18.30
2018-11-10T06:50:50.877Z,18.40
2018-11-10T06:53:19.398Z,18.50
2018-11-10T06:55:47.884Z,18.50
2018-11-10T06:58:16.349Z,18.50
2018-11-10T07:00:44.865Z,18.50
2018-11-10T07:03:13.393Z,18.50
2018-11-10T07:05:41.949Z,18.50
2018-11-10T07:08:10.590Z,18.00
2018-11-10T07:10:39.266Z,14.80
2018-11-10T07:13:07.869Z,12.40
2018-11-10T07:15:36.439Z,11.10
2018-11-10T07:18:05.552Z,10.30
2018-11-10T07:20:35.248Z,9.90
2018-11-10T07:23:03.874Z,9.60
2018-11-10T07:25:32.450Z,9.40
2018-11-10T07:28:00.988Z,9.30
2018-11-10T07:30:29.591Z,9.30
2018-11-10T07:32:58.149Z,9.30
2018-11-10T07:35:27.478Z,9.30
2018-11-10T07:37:56.007Z,9.40
2018-11-10T07:40:24.587Z,9.40
2018-11-10T07:42:53.313Z,9.50
2018-11-10T07:45:21.866Z,9.70
2018-11-10T07:47:50.434Z,9.80
2018-11-10T07:50:19.039Z,9.90
2018-11-10T07:52:47.693Z,10.00
2018-11-10T07:55:17.123Z,10.00
2018-11-10T07:57:47.408Z,10.10
2018-11-10T08:00:17.033Z,10.00
2018-11-10T08:02:45.764Z,10.00
2018-11-10T08:05:14.780Z,10.00
2018-11-10T08:07:43.909Z,10.00
2018-11-10T08:10:13.127Z,10.10
2018-11-10T08:12:41.656Z,10.10
2018-11-10T08:15:16.484Z,10.10
2018-11-10T08:17:45.058Z,10.20
2018-11-10T08:20:14.110Z,10.30
2018-11-10T08:22:42.725Z,10.30
2018-11-10T08:25:13.061Z,10.30
2018-11-10T08:27:41.575Z,10.40
2018-11-10T08:30:11.644Z,10.40
2018-11-10T08:32:40.655Z,10.40
2018-11-10T08:35:10.831Z,10.40
2018-11-10T08:37:39.498Z,10.50
2018-11-10T08:40:10.315Z,10.50
2018-11-10T08:42:38.928Z,10.50
2018-11-10T08:45:08.895Z,10.60
2018-11-10T08:47:37.420Z,10.60
2018-11-10T08:50:07.067Z,10.70
2018-11-10T08:52:35.926Z,10.80
2018-11-10T08:55:04.654Z,10.90
2018-11-10T08:57:33.315Z,10.90
2018-11-10T09:00:01.857Z,11.00
2018-11-10T09:02:30.512Z,11.00
2018-11-10T09:04:59.046Z,11.10
2018-11-10T09:07:27.775Z,11.20
2018-11-10T09:09:56.405Z,11.20
2018-11-10T09:12:24.981Z,11.30
2018-11-10T09:14:53.862Z,11.40
2018-11-10T09:17:22.378Z,11.40
2018-11-10T09:19:50.972Z,11.50
2018-11-10T09:22:19.515Z,11.60
2018-11-10T09:24:48.045Z,11.80
2018-11-10T09:27:17.842Z,12.00
2018-11-10T09:29:46.443Z,12.30
2018-11-10T09:32:15.502Z,12.60
2018-11-10T09:34:44.048Z,12.90
2018-11-10T09:37:12.626Z,13.30
2018-11-10T09:39:41.440Z,13.50
2018-11-10T09:42:10.138Z,13.90
2018-11-10T09:44:38.694Z,14.30
2018-11-10T09:47:07.347Z,14.60
2018-11-10T09:49:38.900Z,14.70
2018-11-10T09:52:07.454Z,15.00
2018-11-10T09:54:36.049Z,15.40
2018-11-10T09:57:05.067Z,15.70
2018-11-10T09:59:33.665Z,16.10
2018-11-10T10:02:02.657Z,16.80
2018-11-10T10:04:30.913Z,17.30
2018-11-10T10:06:59.527Z,17.60
2018-11-10T10:09:28.115Z,17.80
2018-11-10T10:11:56.682Z,18.60
2018-11-10T10:14:25.222Z,18.40
2018-11-10T10:16:53.767Z,17.80
2018-11-10T10:19:22.344Z,17.80
2018-11-10T10:21:51.007Z,17.70
2018-11-10T10:24:19.521Z,18.60
2018-11-10T10:26:48.219Z,18.90
2018-11-10T10:29:16.836Z,20.80
2018-11-10T10:31:45.483Z,24.50
2018-11-10T10:34:14.283Z,27.30
2018-11-10T10:36:42.887Z,28.20
2018-11-10T10:39:11.548Z,28.60
2018-11-10T10:41:40.326Z,29.80
2018-11-10T10:44:09.887Z,30.60
2018-11-10T10:46:38.545Z,31.20
2018-11-10T10:49:07.321Z,31.10
2018-11-10T10:51:36.162Z,30.90
2018-11-10T10:54:05.601Z,30.50
2018-11-10T10:56:34.529Z,29.70
2018-11-10T10:59:03.126Z,28.80
2018-11-10T11:01:37.744Z,29.00
2018-11-10T11:04:11.757Z,29.20
2018-11-10T11:06:40.415Z,29.20
2018-11-10T11:09:09.419Z,29.10
2018-11-10T11:11:38.139Z,29.70
2018-11-10T11:14:06.897Z,29.40
2018-11-10T11:16:35.580Z,28.70
2018-11-10T11:19:05.385Z,28.50
2018-11-10T11:21:34.041Z,28.40
2018-11-10T11:24:02.760Z,28.90
2018-11-10T11:26:32.040Z,29.20
2018-11-10T11:29:01.420Z,29.50
2018-11-10T11:31:30.142Z,28.70
2018-11-10T11:33:58.822Z,28.80
2018-11-10T11:36:27.511Z,28.60
2018-11-10T11:38:56.126Z,28.20
2018-11-10T11:41:24.954Z,27.60
2018-11-10T11:43:53.738Z,27.60
2018-11-10T11:46:22.423Z,27.70
2018-11-10T11:48:51.136Z,27.40
2018-11-10T11:51:19.769Z,27.10
2018-11-10T11:53:48.460Z,27.50
2018-11-10T11:56:17.211Z,27.80
2018-11-10T11:58:45.933Z,27.50
2018-11-10T12:01:15.198Z,27.80
2018-11-10T12:03:44.640Z,27.20
2018-11-10T12:06:13.297Z,25.50
2018-11-10T12:08:42.001Z,23.90
2018-11-10T12:11:10.612Z,22.70
2018-11-10T12:13:39.341Z,21.60
2018-11-10T12:16:08.122Z,21.00
2018-11-10T12:18:45.302Z,20.40
2018-11-10T12:21:14.022Z,20.10
2018-11-10T12:23:42.695Z,19.80
2018-11-10T12:26:13.919Z,19.60
2018-11-10T12:28:47.075Z,19.40
2018-11-10T12:31:18.399Z,19.40
2018-11-10T12:33:58.409Z,19.60
2018-11-10T12:36:27.357Z,19.80
2018-11-10T12:38:59.403Z,19.90
2018-11-10T12:41:40.345Z,19.90
2018-11-10T12:44:27.213Z,19.70
2018-11-10T12:46:59.259Z,19.80
2018-11-10T12:52:04.272Z,19.80
2018-11-10T12:54:33.005Z,19.90
2018-11-10T12:57:01.959Z,19.70
2018-11-10T12:59:36.517Z,19.50
2018-11-10T13:02:05.291Z,19.30
2018-11-10T13:04:33.841Z,19.60
2018-11-10T13:07:02.412Z,20.20
2018-11-10T13:09:30.942Z,20.20
2018-11-10T13:11:59.614Z,20.00
2018-11-10T13:14:28.089Z,19.50
2018-11-10T13:16:56.648Z,19.20
2018-11-10T13:19:25.585Z,18.80
2018-11-10T13:21:54.915Z,18.60
2018-11-10T13:24:23.603Z,18.60
2018-11-10T13:26:52.873Z,18.40
2018-11-10T13:29:21.506Z,18.40
2018-11-10T13:31:50.079Z,18.20
2018-11-10T13:34:18.783Z,18.10
2018-11-10T13:36:47.462Z,18.10
2018-11-10T13:39:16.070Z,18.00
2018-11-10T13:41:44.677Z,18.00
2018-11-10T13:44:13.307Z,18.00
2018-11-10T13:46:41.822Z,17.90
2018-11-10T13:49:10.387Z,18.00
2018-11-10T13:51:39.171Z,18.00
2018-11-10T13:54:07.596Z,18.00
2018-11-10T13:56:36.185Z,18.00
2018-11-10T13:59:04.800Z,17.80
2018-11-10T14:01:33.483Z,17.80
2018-11-10T14:04:02.166Z,17.90
2018-11-10T14:06:31.028Z,17.90
2018-11-10T14:08:59.635Z,17.90
2018-11-10T14:11:28.237Z,17.90
2018-11-10T14:13:56.995Z,17.90
2018-11-10T14:16:25.641Z,17.80
2018-11-10T14:18:54.199Z,17.80
2018-11-10T14:21:22.819Z,17.70
2018-11-10T14:23:51.734Z,17.60
2018-11-10T14:26:20.375Z,17.40
2018-11-10T14:28:48.938Z,17.30
2018-11-10T14:31:17.548Z,17.20
2018-11-10T14:33:46.148Z,17.10
2018-11-10T14:36:14.759Z,16.90
2018-11-10T14:38:43.372Z,16.70
2018-11-10T14:41:11.922Z,16.60
2018-11-10T14:43:40.606Z,16.50
2018-11-10T14:46:09.201Z,16.40
2018-11-10T14:48:37.793Z,16.30
2018-11-10T14:51:06.436Z,16.20
2018-11-10T14:53:35.026Z,16.10
2018-11-10T14:56:03.627Z,16.10
2018-11-10T14:58:32.228Z,16.00
2018-11-10T15:01:00.757Z,15.90
2018-11-10T15:03:29.486Z,15.80
2018-11-10T15:05:58.083Z,15.70
2018-11-10T15:08:26.646Z,15.60
2018-11-10T15:10:55.267Z,15.40
2018-11-10T15:13:23.863Z,15.30
2018-11-10T15:15:52.557Z,15.20
2018-11-10T15:18:21.325Z,15.10
2018-11-10T15:20:49.801Z,15.00
2018-11-10T15:23:18.445Z,14.90
2018-11-10T15:25:47.013Z,14.80
2018-11-10T15:28:16.461Z,14.70
2018-11-10T15:30:45.099Z,14.60
2018-11-10T15:33:13.763Z,14.50
2018-11-10T15:35:42.364Z,14.40
2018-11-10T15:38:11.040Z,14.30
2018-11-10T15:40:39.592Z,14.20
2018-11-10T15:43:08.254Z,14.10
2018-11-10T15:45:36.956Z,14.00
2018-11-10T15:48:05.598Z,13.90
2018-11-10T15:50:34.458Z,13.80
2018-11-10T15:53:02.885Z,13.70
2018-11-10T15:55:31.504Z,13.70
2018-11-10T15:58:00.054Z,13.60
2018-11-10T16:00:28.674Z,13.50
2018-11-10T16:02:57.287Z,13.50
2018-11-10T16:05:25.902Z,13.50
2018-11-10T16:07:54.506Z,13.60
2018-11-10T16:10:23.180Z,13.60
2018-11-10T16:12:51.703Z,13.60
2018-11-10T16:15:20.268Z,13.50
2018-11-10T16:17:48.929Z,13.50
2018-11-10T16:20:18.765Z,13.50
2018-11-10T16:22:48.677Z,13.40
2018-11-10T16:25:17.698Z,13.30
2018-11-10T16:27:46.510Z,13.20
2018-11-10T16:30:16.496Z,13.20
2018-11-10T16:32:45.507Z,13.10
2018-11-10T16:35:14.434Z,13.10
2018-11-10T16:37:43.068Z,13.10
2018-11-10T16:40:14.409Z,13.10
2018-11-10T16:42:44.084Z,13.00
2018-11-10T16:45:13.250Z,13.00
2018-11-10T16:47:45.163Z,12.90
2018-11-10T16:50:13.810Z,13.00
2018-11-10T16:52:43.152Z,12.90
2018-11-10T16:55:11.893Z,12.90
2018-11-10T16:57:40.614Z,12.90
2018-11-10T17:00:12.487Z,12.90
2018-11-10T17:02:41.334Z,12.90
2018-11-10T17:05:10.268Z,12.90
2018-11-10T17:07:39.301Z,12.80
2018-11-10T17:10:11.206Z,12.80
2018-11-10T17:12:43.754Z,12.80
2018-11-10T17:15:12.434Z,12.80
2018-11-10T17:17:41.779Z,12.80
2018-11-10T17:20:12.980Z,12.80
2018-11-10T17:22:42.391Z,12.80
2018-11-10T17:25:13.455Z,12.70
2018-11-10T17:27:42.777Z,12.70
2018-11-10T17:30:14.713Z,12.70
2018-11-10T17:32:43.796Z,12.70
2018-11-10T17:35:13.347Z,12.70
2018-11-10T17:37:46.166Z,12.60
2018-11-10T17:40:25.898Z,12.60
2018-11-10T17:59:20.949Z,12.50
2018-11-10T18:01:49.597Z,12.40
2018-11-10T18:04:18.070Z,13.20
2018-11-10T18:06:46.625Z,14.20
2018-11-10T18:09:15.194Z,15.20
2018-11-10T18:11:43.747Z,16.00
2018-11-10T18:14:12.314Z,16.60
2018-11-10T18:16:40.896Z,17.00
2018-11-10T18:19:09.553Z,17.40
2018-11-10T18:21:37.994Z,17.70
2018-11-10T18:24:06.593Z,17.90
2018-11-10T18:26:35.268Z,18.10
2018-11-10T18:29:04.529Z,18.30
2018-11-10T18:31:34.613Z,18.40
2018-11-10T18:34:03.197Z,18.50
2018-11-10T18:36:31.758Z,18.60
2018-11-10T18:39:00.359Z,18.60
2018-11-10T18:41:28.991Z,18.70
2018-11-10T18:43:57.620Z,18.80
2018-11-10T18:46:26.178Z,18.80
2018-11-10T18:48:54.813Z,18.80
2018-11-10T18:51:23.373Z,18.90
2018-11-10T18:53:52.017Z,18.90
2018-11-10T18:56:20.719Z,18.90
2018-11-10T18:58:49.352Z,18.90
2018-11-10T19:01:17.913Z,18.90
2018-11-10T19:03:47.236Z,19.00
2018-11-10T19:06:16.026Z,18.90
2018-11-10T19:08:44.589Z,19.00
2018-11-10T19:11:13.215Z,19.00
2018-11-10T19:13:41.729Z,19.00
2018-11-10T19:16:10.525Z,19.00
2018-11-10T19:18:39.105Z,19.00
2018-11-10T19:21:07.785Z,19.10
